Time;durP1;ratioP1;P1;durP2;ratioP2;P2;SDS_P1;SDS_P2;PMS_P1;PMS_P2;Temp;Humidity;BMP_temperature;BMP_pressure;BME280_temperature;BME280_humidity;BME280_pressure;Samples;Min_cycle;Max_cycle;Signal;HPM_P1;HPM_P2
2022/06/30 00:01:00;;;;;;;;;;;;;;;;;;5017998;28;19917;-73
2022/06/30 00:03:26;;;;;;;;;;;;;;;;;;5018389;28;20345;-74
2022/06/30 00:05:52;;;;;;;;;;;;;;;;;;5033179;28;20407;-74
2022/06/30 00:08:18;;;;;;;;;;;;;;;;;;5033384;28;19914;-73
2022/06/30 00:10:44;;;;;;;;;;;;;;;;;;5017959;28;20004;-74
2022/06/30 00:13:11;;;;;;;;;;;;;;;;;;5018049;28;20272;-74
2022/06/30 00:15:38;;;;;;;;;;;;;;;;;;5018756;28;19936;-74
2022/06/30 00:18:04;;;;;;;;;;;;;;;;;;5033256;28;19918;-73
2022/06/30 00:20:30;;;;;;;;;;;;;;;;;;5017978;28;19956;-73
2022/06/30 00:22:57;;;;;;;;;;;;;;;;;;5017522;28;19917;-74
2022/06/30 00:25:23;;;;;;;;;;;;;;;;;;5032792;28;20268;-74
2022/06/30 00:27:49;;;;;;;;;;;;;;;;;;5017881;28;19917;-74
2022/06/30 00:30:15;;;;;;;;;;;;;;;;;;5018343;28;20348;-74
2022/06/30 00:32:41;;;;;;;;;;;;;;;;;;5033279;28;19909;-74
2022/06/30 00:35:07;;;;;;;;;;;;;;;;;;5018714;28;19909;-74
2022/06/30 00:37:33;;;;;;;;;;;;;;;;;;5017555;28;20356;-74
2022/06/30 00:39:59;;;;;;;;;;;;;;;;;;5018141;28;19910;-74
2022/06/30 00:42:26;;;;;;;;;;;;;;;;;;5017677;28;19915;-74
2022/06/30 00:44:52;;;;;;;;;;;;;;;;;;5018599;28;19909;-74
2022/06/30 00:47:18;;;;;;;;;;;;;;;;;;5017500;28;20384;-74
2022/06/30 00:49:43;;;;;;;;;;;;;;;;;;5017414;28;19909;-74
2022/06/30 00:52:09;;;;;;;;;;;;;;;;;;5017804;28;20352;-74
2022/06/30 00:54:35;;;;;;;;;;;;;;;;;;5017465;28;19910;-74
2022/06/30 00:57:01;;;;;;;;;;;;;;;;;;5032319;28;19918;-74
2022/06/30 00:59:27;;;;;;;;;;;;;;;;;;5017674;28;20072;-74
2022/06/30 01:01:53;;;;;;;;;;;;;;;;;;5017457;28;19909;-74
2022/06/30 01:04:19;;;;;;;;;;;;;;;;;;5017420;28;20367;-74
2022/06/30 01:06:45;;;;;;;;;;;;;;;;;;5017586;28;19909;-74
2022/06/30 01:09:11;;;;;;;;;;;;;;;;;;5017584;28;19936;-74
2022/06/30 01:14:21;;;;;;;;;;;;;;;;;;5016700;28;19952;-74
2022/06/30 01:16:47;;;;;;;;;;;;;;;;;;5016961;28;19917;-74
2022/06/30 01:19:13;;;;;;;;;;;;;;;;;;5016844;28;19913;-74
2022/06/30 01:21:39;;;;;;;;;;;;;;;;;;5016809;28;19996;-74
2022/06/30 01:24:05;;;;;;;;;;;;;;;;;;5016756;28;20349;-73
2022/06/30 01:26:31;;;;;;;;;;;;;;;;;;5016752;28;20264;-74
2022/06/30 01:28:57;;;;;;;;;;;;;;;;;;5017596;28;19910;-74
2022/06/30 01:31:23;;;;;;;;;;;;;;;;;;5032115;28;19951;-74
2022/06/30 01:33:49;;;;;;;;;;;;;;;;;;5016568;28;19913;-73
2022/06/30 01:36:15;;;;;;;;;;;;;;;;;;5016934;28;20344;-73
2022/06/30 01:38:41;;;;;;;;;;;;;;;;;;5015872;28;20004;-73
2022/06/30 01:41:07;;;;;;;;;;;;;;;;;;5017013;28;19910;-74
2022/06/30 01:43:33;;;;;;;;;;;;;;;;;;5031891;28;19910;-73
2022/06/30 01:45:59;;;;;;;;;;;;;;;;;;5017159;28;20324;-73
2022/06/30 01:48:25;;;;;;;;;;;;;;;;;;5016993;28;19936;-73
2022/06/30 01:50:51;;;;;;;;;;;;;;;;;;5016273;28;20327;-73
2022/06/30 01:53:17;;;;;;;;;;;;;;;;;;5016511;28;19956;-73
2022/06/30 01:55:43;;;;;;;;;;;;;;;;;;5016351;28;19909;-73
2022/06/30 01:58:09;;;;;;;;;;;;;;;;;;5016320;28;19917;-73
2022/06/30 02:00:35;;;;;;;;;;;;;;;;;;5016685;28;19909;-73
2022/06/30 02:03:01;;;;;;;;;;;;;;;;;;5031519;28;19939;-73
2022/06/30 02:05:27;;;;;;;;;;;;;;;;;;5016644;28;20339;-73
2022/06/30 02:07:53;;;;;;;;;;;;;;;;;;5016151;28;19909;-73
2022/06/30 02:10:19;;;;;;;;;;;;;;;;;;5031415;28;19909;-73
2022/06/30 02:12:45;;;;;;;;;;;;;;;;;;5031251;28;19970;-73
2022/06/30 02:15:11;;;;;;;;;;;;;;;;;;5016175;28;20026;-73
2022/06/30 02:17:37;;;;;;;;;;;;;;;;;;5016241;28;20375;-74
2022/06/30 02:20:03;;;;;;;;;;;;;;;;;;5016068;28;19999;-74
2022/06/30 02:22:29;;;;;;;;;;;;;;;;;;5016191;28;19917;-74
2022/06/30 02:24:55;;;;;;;;;;;;;;;;;;5016023;28;19909;-74
2022/06/30 02:27:23;;;;;;;;;;;;;;;;;;5015886;28;19921;-73
2022/06/30 02:29:49;;;;;;;;;;;;;;;;;;5016190;28;20416;-74
2022/06/30 02:32:15;;;;;;;;;;;;;;;;;;5015865;28;19909;-74
2022/06/30 02:34:43;;;;;;;;;;;;;;;;;;5016016;28;20276;-73
2022/06/30 02:37:08;;;;;;;;;;;;;;;;;;5015711;28;20008;-73
2022/06/30 02:39:34;;;;;;;;;;;;;;;;;;5030954;28;19944;-74
2022/06/30 02:42:00;;;;;;;;;;;;;;;;;;5015781;28;19909;-74
2022/06/30 02:44:26;;;;;;;;;;;;;;;;;;5030886;28;19909;-74
2022/06/30 02:46:54;;;;;;;;;;;;;;;;;;5015736;28;19917;-74
2022/06/30 02:49:20;;;;;;;;;;;;;;;;;;5015976;28;19910;-74
2022/06/30 02:51:46;;;;;;;;;;;;;;;;;;5030453;28;20264;-74
2022/06/30 02:54:12;;;;;;;;;;;;;;;;;;5015585;28;19945;-74
2022/06/30 02:56:38;;;;;;;;;;;;;;;;;;5030657;28;20474;-73
2022/06/30 02:59:04;;;;;;;;;;;;;;;;;;5015459;28;19909;-74
2022/06/30 03:01:30;;;;;;;;;;;;;;;;;;5015256;28;19963;-74
2022/06/30 03:03:56;;;;;;;;;;;;;;;;;;5015149;28;19915;-74
2022/06/30 03:06:22;;;;;;;;;;;;;;;;;;5014911;28;20276;-74
2022/06/30 03:08:48;;;;;;;;;;;;;;;;;;5030892;28;19914;-73
2022/06/30 03:11:17;;;;;;;;;;;;;;;;;;5031090;28;20344;-74
2022/06/30 03:13:44;;;;;;;;;;;;;;;;;;5015584;28;19916;-74
2022/06/30 03:16:10;;;;;;;;;;;;;;;;;;5030298;28;19909;-73
2022/06/30 03:18:36;;;;;;;;;;;;;;;;;;5015329;28;19925;-74
2022/06/30 03:21:02;;;;;;;;;;;;;;;;;;5015366;28;19909;-73
2022/06/30 03:23:28;;;;;;;;;;;;;;;;;;5015511;28;20063;-73
2022/06/30 03:25:54;;;;;;;;;;;;;;;;;;5029982;28;19920;-74
2022/06/30 03:28:20;;;;;;;;;;;;;;;;;;5014572;28;19917;-74
2022/06/30 03:30:47;;;;;;;;;;;;;;;;;;5015449;28;19909;-74
2022/06/30 03:33:13;;;;;;;;;;;;;;;;;;5015207;28;19917;-73
2022/06/30 03:35:39;;;;;;;;;;;;;;;;;;5015688;28;19940;-73
2022/06/30 03:38:06;;;;;;;;;;;;;;;;;;5014838;28;19917;-74
2022/06/30 03:40:32;;;;;;;;;;;;;;;;;;5015764;28;19913;-74
2022/06/30 03:42:58;;;;;;;;;;;;;;;;;;5014686;28;19919;-74
2022/06/30 03:45:24;;;;;;;;;;;;;;;;;;5015260;28;19910;-74
2022/06/30 03:47:50;;;;;;;;;;;;;;;;;;5015100;28;19909;-73
2022/06/30 03:50:16;;;;;;;;;;;;;;;;;;5015109;28;19944;-73
2022/06/30 03:52:42;;;;;;;;;;;;;;;;;;5015135;28;19916;-73
2022/06/30 03:55:08;;;;;;;;;;;;;;;;;;5015034;28;19914;-74
2022/06/30 03:57:34;;;;;;;;;;;;;;;;;;5014632;28;19921;-74
2022/06/30 03:59:59;;;;;;;;;;;;;;;;;;5015727;28;20032;-74
2022/06/30 04:02:25;;;;;;;;;;;;;;;;;;5018301;28;19909;-74
2022/06/30 04:04:51;;;;;;;;;;;;;;;;;;5033803;28;19977;-74
2022/06/30 04:07:17;;;;;;;;;;;;;;;;;;5033527;28;19909;-74
2022/06/30 04:09:43;;;;;;;;;;;;;;;;;;5018507;28;19917;-74
2022/06/30 04:12:09;;;;;;;;;;;;;;;;;;5018290;28;19909;-74
2022/06/30 04:14:35;;;;;;;;;;;;;;;;;;5018424;28;19915;-74
2022/06/30 04:17:01;;;;;;;;;;;;;;;;;;5017956;28;20263;-74
2022/06/30 04:19:27;;;;;;;;;;;;;;;;;;5018873;28;19909;-74
2022/06/30 04:21:53;;;;;;;;;;;;;;;;;;5017984;28;19909;-73
2022/06/30 04:24:19;;;;;;;;;;;;;;;;;;5018521;28;19917;-73
2022/06/30 04:26:45;;;;;;;;;;;;;;;;;;5017648;28;20250;-74
2022/06/30 04:29:11;;;;;;;;;;;;;;;;;;5017886;28;19909;-74
2022/06/30 04:34:21;;;;;;;;;;;;;;;;;;5017244;28;20307;-73
2022/06/30 04:36:47;;;;;;;;;;;;;;;;;;5017610;28;19917;-73
2022/06/30 04:39:13;;;;;;;;;;;;;;;;;;5017629;28;19916;-74
2022/06/30 04:41:39;;;;;;;;;;;;;;;;;;5032691;28;19948;-73
2022/06/30 04:44:05;;;;;;;;;;;;;;;;;;5032789;28;19960;-74
2022/06/30 04:46:41;;;;;;;;;;;;;;;;;;5016640;28;19909;-74
2022/06/30 04:49:08;;;;;;;;;;;;;;;;;;5015536;28;19914;-75
2022/06/30 04:51:34;;;;;;;;;;;;;;;;;;5017400;28;20004;-75
2022/06/30 04:54:00;;;;;;;;;;;;;;;;;;5012434;28;19909;-75
2022/06/30 04:56:26;;;;;;;;;;;;;;;;;;5017493;28;20402;-75
2022/06/30 04:58:52;;;;;;;;;;;;;;;;;;5009864;28;19913;-75
2022/06/30 05:01:18;;;;;;;;;;;;;;;;;;4997717;28;20412;-74
2022/06/30 05:03:44;;;;;;;;;;;;;;;;;;5002928;28;19998;-78
2022/06/30 05:06:10;;;;;;;;;;;;;;;;;;5003272;28;20273;-74
2022/06/30 05:08:36;;;;;;;;;;;;;;;;;;4997123;28;19913;-74
2022/06/30 05:11:02;;;;;;;;;;;;;;;;;;4997181;28;19916;-74
2022/06/30 05:13:28;;;;;;;;;;;;;;;;;;5001045;28;19913;-76
2022/06/30 05:15:54;;;;;;;;;;;;;;;;;;5016951;28;19916;-74
2022/06/30 05:18:20;;;;;;;;;;;;;;;;;;5016881;28;19917;-74
2022/06/30 05:20:46;;;;;;;;;;;;;;;;;;5000873;28;19910;-74
2022/06/30 05:23:12;;;;;;;;;;;;;;;;;;4999821;28;20277;-74
2022/06/30 05:28:23;;;;;;;;;;;;;;;;;;5035064;28;19962;-73
2022/06/30 05:30:49;;;;;;;;;;;;;;;;;;5023371;28;19913;-73
2022/06/30 05:33:15;;;;;;;;;;;;;;;;;;5012644;28;19916;-73
2022/06/30 05:35:42;;;;;;;;;;;;;;;;;;5015320;28;20048;-71
2022/06/30 05:38:08;;;;;;;;;;;;;;;;;;5016374;28;20396;-73
2022/06/30 05:40:34;;;;;;;;;;;;;;;;;;5014241;28;19916;-75
2022/06/30 05:43:00;;;;;;;;;;;;;;;;;;5009608;28;20004;-71
2022/06/30 05:45:26;;;;;;;;;;;;;;;;;;5015192;28;19914;-72
2022/06/30 05:47:52;;;;;;;;;;;;;;;;;;5000262;28;19964;-72
2022/06/30 05:50:18;;;;;;;;;;;;;;;;;;4994776;28;19910;-66
2022/06/30 05:52:44;;;;;;;;;;;;;;;;;;4995268;28;20245;-67
2022/06/30 05:55:10;;;;;;;;;;;;;;;;;;4998347;28;19975;-67
2022/06/30 05:57:36;;;;;;;;;;;;;;;;;;5003542;28;19924;-67
2022/06/30 06:00:02;;;;;;;;;;;;;;;;;;5004680;28;19909;-66
2022/06/30 06:02:28;;;;;;;;;;;;;;;;;;5005952;28;19949;-67
2022/06/30 06:04:54;;;;;;;;;;;;;;;;;;4998772;28;19917;-67
2022/06/30 06:07:19;;;;;;;;;;;;;;;;;;5000224;28;20371;-67
2022/06/30 06:09:47;;;;;;;;;;;;;;;;;;5005645;28;19976;-67
2022/06/30 06:12:13;;;;;;;;;;;;;;;;;;5015484;28;19909;-67
2022/06/30 06:14:39;;;;;;;;;;;;;;;;;;5015856;28;19913;-67
2022/06/30 06:17:05;;;;;;;;;;;;;;;;;;5015454;28;19913;-67
2022/06/30 06:19:31;;;;;;;;;;;;;;;;;;5011921;28;19914;-67
2022/06/30 06:21:57;;;;;;;;;;;;;;;;;;5007602;28;19909;-67
2022/06/30 06:24:23;;;;;;;;;;;;;;;;;;5013853;28;19956;-69
2022/06/30 06:26:48;;;;;;;;;;;;;;;;;;5015025;28;19983;-69
2022/06/30 06:29:15;;;;;;;;;;;;;;;;;;5015409;28;19920;-69
2022/06/30 06:31:41;;;;;;;;;;;;;;;;;;5015272;28;19909;-69
2022/06/30 06:34:07;;;;;;;;;;;;;;;;;;5015221;28;19916;-69
2022/06/30 06:36:33;;;;;;;;;;;;;;;;;;5015631;28;19955;-70
2022/06/30 06:38:59;;;;;;;;;;;;;;;;;;5015432;28;20008;-69
2022/06/30 06:41:25;;;;;;;;;;;;;;;;;;5015364;28;20345;-69
2022/06/30 06:43:51;;;;;;;;;;;;;;;;;;5015664;28;19913;-70
2022/06/30 06:46:17;;;;;;;;;;;;;;;;;;5015431;28;19909;-70
2022/06/30 06:48:43;;;;;;;;;;;;;;;;;;5015339;28;19910;-70
2022/06/30 06:51:09;;;;;;;;;;;;;;;;;;5015579;28;19914;-70
2022/06/30 06:53:35;;;;;;;;;;;;;;;;;;5015654;28;19936;-70
2022/06/30 06:56:01;;;;;;;;;;;;;;;;;;5014938;28;19913;-70
2022/06/30 06:58:27;;;;;;;;;;;;;;;;;;5015229;28;19913;-70
2022/06/30 07:00:54;;;;;;;;;;;;;;;;;;5015540;28;19913;-70
2022/06/30 07:03:21;;;;;;;;;;;;;;;;;;5014634;28;20263;-68
2022/06/30 07:05:47;;;;;;;;;;;;;;;;;;5012002;28;19909;-68
2022/06/30 07:08:13;;;;;;;;;;;;;;;;;;5025540;28;19964;-67
2022/06/30 07:10:39;;;;;;;;;;;;;;;;;;5014914;28;19909;-67
2022/06/30 07:13:05;;;;;;;;;;;;;;;;;;5028869;28;20417;-67
2022/06/30 07:15:31;;;;;;;;;;;;;;;;;;5035436;28;20324;-67
2022/06/30 07:17:58;;;;;;;;;;;;;;;;;;5034668;28;19975;-68
2022/06/30 07:20:24;;;;;;;;;;;;;;;;;;5022646;28;20353;-69
2022/06/30 07:22:50;;;;;;;;;;;;;;;;;;5017208;28;19932;-68
2022/06/30 07:25:16;;;;;;;;;;;;;;;;;;5025288;28;19909;-68
2022/06/30 07:27:42;;;;;;;;;;;;;;;;;;5014300;28;19921;-69
2022/06/30 07:30:08;;;;;;;;;;;;;;;;;;5023539;28;19952;-69
2022/06/30 07:32:35;;;;;;;;;;;;;;;;;;5031373;28;19909;-68
2022/06/30 07:35:01;;;;;;;;;;;;;;;;;;4995370;28;19963;-68
2022/06/30 07:37:27;;;;;;;;;;;;;;;;;;4999427;28;19913;-68
2022/06/30 07:39:53;;;;;;;;;;;;;;;;;;4999227;28;20357;-68
2022/06/30 07:42:19;;;;;;;;;;;;;;;;;;5015818;28;19917;-68
2022/06/30 07:44:45;;;;;;;;;;;;;;;;;;5026721;28;19970;-68
2022/06/30 07:47:11;;;;;;;;;;;;;;;;;;5038736;28;19913;-68
2022/06/30 07:49:38;;;;;;;;;;;;;;;;;;5024538;28;20368;-68
2022/06/30 07:52:04;;;;;;;;;;;;;;;;;;5018462;28;19964;-69
2022/06/30 07:54:30;;;;;;;;;;;;;;;;;;5018822;28;19910;-69
2022/06/30 07:56:56;;;;;;;;;;;;;;;;;;5017956;28;20294;-69
2022/06/30 07:59:22;;;;;;;;;;;;;;;;;;5019656;28;19921;-68
2022/06/30 08:01:48;;;;;;;;;;;;;;;;;;5031388;28;19917;-69
2022/06/30 08:04:17;;;;;;;;;;;;;;;;;;5018025;28;20399;-69
2022/06/30 08:06:43;;;;;;;;;;;;;;;;;;5018822;28;19916;-69
2022/06/30 08:09:09;;;;;;;;;;;;;;;;;;5018023;28;20388;-69
2022/06/30 08:11:35;;;;;;;;;;;;;;;;;;5018313;28;19909;-69
2022/06/30 08:14:00;;;;;;;;;;;;;;;;;;5018451;28;20407;-69
2022/06/30 08:16:26;;;;;;;;;;;;;;;;;;5018617;28;19909;-69
2022/06/30 08:18:52;;;;;;;;;;;;;;;;;;5017645;28;19968;-68
2022/06/30 08:21:18;;;;;;;;;;;;;;;;;;5017503;28;19917;-68
2022/06/30 08:23:44;;;;;;;;;;;;;;;;;;5017997;28;19916;-69
2022/06/30 08:26:10;;;;;;;;;;;;;;;;;;5017937;28;19909;-68
2022/06/30 08:28:36;;;;;;;;;;;;;;;;;;5017412;28;19929;-68
2022/06/30 08:31:02;;;;;;;;;;;;;;;;;;5017515;28;19909;-68
2022/06/30 08:33:28;;;;;;;;;;;;;;;;;;5017548;28;19921;-68
2022/06/30 08:35:54;;;;;;;;;;;;;;;;;;5018358;28;19910;-69
2022/06/30 08:38:21;;;;;;;;;;;;;;;;;;5017343;28;20399;-69
2022/06/30 08:43:31;;;;;;;;;;;;;;;;;;5017090;28;19917;-69
2022/06/30 08:45:57;;;;;;;;;;;;;;;;;;5017061;28;19909;-69
2022/06/30 08:48:23;;;;;;;;;;;;;;;;;;5017484;28;20383;-69
2022/06/30 08:50:49;;;;;;;;;;;;;;;;;;4997273;28;19909;-69
2022/06/30 08:53:15;;;;;;;;;;;;;;;;;;5004813;28;20000;-68
2022/06/30 08:55:41;;;;;;;;;;;;;;;;;;5036488;28;19909;-68
2022/06/30 08:58:07;;;;;;;;;;;;;;;;;;5022369;28;19913;-68
2022/06/30 09:00:33;;;;;;;;;;;;;;;;;;5016316;28;19967;-68
2022/06/30 09:02:59;;;;;;;;;;;;;;;;;;5016268;28;19957;-68
2022/06/30 09:05:25;;;;;;;;;;;;;;;;;;5015376;28;19917;-68
2022/06/30 09:07:51;;;;;;;;;;;;;;;;;;5016395;28;19909;-68
2022/06/30 09:10:17;;;;;;;;;;;;;;;;;;5016652;28;20402;-68
2022/06/30 09:12:44;;;;;;;;;;;;;;;;;;5016038;28;19909;-68
2022/06/30 09:15:10;;;;;;;;;;;;;;;;;;5015368;28;19915;-68
2022/06/30 09:17:36;;;;;;;;;;;;;;;;;;5014638;28;19920;-68
2022/06/30 09:20:02;;;;;;;;;;;;;;;;;;5014425;28;20284;-68
2022/06/30 09:22:28;;;;;;;;;;;;;;;;;;5016155;28;19913;-68
2022/06/30 09:24:54;;;;;;;;;;;;;;;;;;5014835;28;20415;-68
2022/06/30 09:27:20;;;;;;;;;;;;;;;;;;5015100;28;19975;-68
2022/06/30 09:29:46;;;;;;;;;;;;;;;;;;5015976;28;19909;-68
2022/06/30 09:32:12;;;;;;;;;;;;;;;;;;5016071;28;20277;-68
2022/06/30 09:34:40;;;;;;;;;;;;;;;;;;5022477;28;19991;-68
2022/06/30 09:37:06;;;;;;;;;;;;;;;;;;5023015;28;19992;-68
2022/06/30 09:39:32;;;;;;;;;;;;;;;;;;5012514;28;19961;-68
2022/06/30 09:41:58;;;;;;;;;;;;;;;;;;5016131;28;19909;-68
2022/06/30 09:44:24;;;;;;;;;;;;;;;;;;5016789;28;19909;-68
2022/06/30 09:46:50;;;;;;;;;;;;;;;;;;5016476;28;20375;-68
2022/06/30 09:49:15;;;;;;;;;;;;;;;;;;5016133;28;19910;-68
2022/06/30 09:51:41;;;;;;;;;;;;;;;;;;5016111;28;19909;-68
2022/06/30 09:54:08;;;;;;;;;;;;;;;;;;5014210;28;20376;-67
2022/06/30 09:56:33;;;;;;;;;;;;;;;;;;5020108;28;19916;-68
2022/06/30 09:58:59;;;;;;;;;;;;;;;;;;5015223;28;20291;-68
2022/06/30 10:01:26;;;;;;;;;;;;;;;;;;5016114;28;19909;-68
2022/06/30 10:03:51;;;;;;;;;;;;;;;;;;5015811;28;19997;-68
2022/06/30 10:06:17;;;;;;;;;;;;;;;;;;5016570;28;19945;-68
2022/06/30 10:08:43;;;;;;;;;;;;;;;;;;5016040;28;19910;-68
2022/06/30 10:11:09;;;;;;;;;;;;;;;;;;5015563;28;19959;-68
2022/06/30 10:13:35;;;;;;;;;;;;;;;;;;5015861;28;19909;-68
2022/06/30 10:16:01;;;;;;;;;;;;;;;;;;5015456;28;19916;-68
2022/06/30 10:18:27;;;;;;;;;;;;;;;;;;5015570;28;19913;-68
2022/06/30 10:20:53;;;;;;;;;;;;;;;;;;5015484;28;19940;-68
2022/06/30 10:23:19;;;;;;;;;;;;;;;;;;5004876;28;19909;-68
2022/06/30 10:25:45;;;;;;;;;;;;;;;;;;5014942;28;19913;-68
2022/06/30 10:28:11;;;;;;;;;;;;;;;;;;5014669;28;20376;-68
2022/06/30 10:30:37;;;;;;;;;;;;;;;;;;5014492;28;20249;-68
2022/06/30 10:33:04;;;;;;;;;;;;;;;;;;5012945;28;19917;-68
2022/06/30 10:35:29;;;;;;;;;;;;;;;;;;5014040;28;20003;-68
2022/06/30 10:37:55;;;;;;;;;;;;;;;;;;5011746;28;20009;-68
2022/06/30 10:40:21;;;;;;;;;;;;;;;;;;5013400;28;19968;-68
2022/06/30 10:42:47;;;;;;;;;;;;;;;;;;5014279;28;19999;-68
2022/06/30 10:45:13;;;;;;;;;;;;;;;;;;5014233;28;19952;-68
2022/06/30 10:47:39;;;;;;;;;;;;;;;;;;5014617;28;19917;-68
2022/06/30 10:50:05;;;;;;;;;;;;;;;;;;5014244;28;19916;-68
2022/06/30 10:52:31;;;;;;;;;;;;;;;;;;5014169;28;19909;-68
2022/06/30 10:54:58;;;;;;;;;;;;;;;;;;5013100;28;20356;-68
2022/06/30 10:57:24;;;;;;;;;;;;;;;;;;5013866;28;19917;-68
2022/06/30 10:59:50;;;;;;;;;;;;;;;;;;5014245;28;19952;-68
2022/06/30 11:02:16;;;;;;;;;;;;;;;;;;5014804;28;19913;-68
2022/06/30 11:04:42;;;;;;;;;;;;;;;;;;5014448;28;20000;-68
2022/06/30 11:07:08;;;;;;;;;;;;;;;;;;5013643;28;20052;-68
2022/06/30 11:09:34;;;;;;;;;;;;;;;;;;5016847;28;19909;-68
2022/06/30 11:12:00;;;;;;;;;;;;;;;;;;5020574;28;20000;-68
2022/06/30 11:14:25;;;;;;;;;;;;;;;;;;5019851;28;19909;-68
2022/06/30 11:16:51;;;;;;;;;;;;;;;;;;5020415;28;19996;-68
2022/06/30 11:19:17;;;;;;;;;;;;;;;;;;5020537;28;20383;-68
2022/06/30 11:21:43;;;;;;;;;;;;;;;;;;5019753;28;19996;-68
2022/06/30 11:24:09;;;;;;;;;;;;;;;;;;5020772;28;19909;-68
2022/06/30 11:29:20;;;;;;;;;;;;;;;;;;5018539;28;19916;-68
2022/06/30 11:31:46;;;;;;;;;;;;;;;;;;5020350;28;19909;-68
2022/06/30 11:34:12;;;;;;;;;;;;;;;;;;5018900;28;19910;-68
2022/06/30 11:36:38;;;;;;;;;;;;;;;;;;5019044;28;20010;-68
2022/06/30 11:39:04;;;;;;;;;;;;;;;;;;5020817;28;19992;-68
2022/06/30 11:44:14;;;;;;;;;;;;;;;;;;5000574;28;19967;-68
2022/06/30 11:46:40;;;;;;;;;;;;;;;;;;5000503;28;20420;-68
2022/06/30 11:49:06;;;;;;;;;;;;;;;;;;5006797;28;19983;-68
2022/06/30 11:51:33;;;;;;;;;;;;;;;;;;5019990;28;19936;-68
2022/06/30 11:53:59;;;;;;;;;;;;;;;;;;5019808;28;20410;-69
2022/06/30 11:56:26;;;;;;;;;;;;;;;;;;5019518;28;19916;-68
2022/06/30 11:58:52;;;;;;;;;;;;;;;;;;5001230;28;19917;-68
2022/06/30 12:01:18;;;;;;;;;;;;;;;;;;5006532;28;19968;-68
2022/06/30 12:03:44;;;;;;;;;;;;;;;;;;5020651;28;19910;-68
2022/06/30 12:06:10;;;;;;;;;;;;;;;;;;5020080;28;19913;-68
2022/06/30 12:08:36;;;;;;;;;;;;;;;;;;5020135;28;19914;-68
2022/06/30 12:11:02;;;;;;;;;;;;;;;;;;5019755;28;19909;-68
2022/06/30 12:13:29;;;;;;;;;;;;;;;;;;5019964;28;20348;-68
2022/06/30 12:15:55;;;;;;;;;;;;;;;;;;5020148;28;19937;-68
2022/06/30 12:18:22;;;;;;;;;;;;;;;;;;5019874;28;19966;-68
2022/06/30 12:20:48;;;;;;;;;;;;;;;;;;5020107;28;20045;-68
2022/06/30 12:23:14;;;;;;;;;;;;;;;;;;5018029;28;20363;-68
2022/06/30 12:25:40;;;;;;;;;;;;;;;;;;5018283;28;20383;-68
2022/06/30 12:28:06;;;;;;;;;;;;;;;;;;5017688;28;19917;-68
2022/06/30 12:30:32;;;;;;;;;;;;;;;;;;5017840;28;19916;-68
2022/06/30 12:32:58;;;;;;;;;;;;;;;;;;5017424;28;19923;-68
2022/06/30 12:35:24;;;;;;;;;;;;;;;;;;5009205;28;19996;-68
2022/06/30 12:37:51;;;;;;;;;;;;;;;;;;5009895;28;20365;-68
2022/06/30 12:40:17;;;;;;;;;;;;;;;;;;5028496;28;20360;-68
2022/06/30 12:42:43;;;;;;;;;;;;;;;;;;5021427;28;19964;-68
2022/06/30 12:45:09;;;;;;;;;;;;;;;;;;5033433;28;19912;-68
2022/06/30 12:47:37;;;;;;;;;;;;;;;;;;5022926;28;19909;-68
2022/06/30 12:50:04;;;;;;;;;;;;;;;;;;5026123;28;19944;-68
2022/06/30 12:52:30;;;;;;;;;;;;;;;;;;5006672;28;19916;-68
2022/06/30 12:54:56;;;;;;;;;;;;;;;;;;5029757;28;19909;-68
2022/06/30 12:57:22;;;;;;;;;;;;;;;;;;5020016;28;20044;-68
2022/06/30 12:59:48;;;;;;;;;;;;;;;;;;5029835;28;19921;-68
2022/06/30 13:02:17;;;;;;;;;;;;;;;;;;5027594;28;19909;-68
2022/06/30 13:04:43;;;;;;;;;;;;;;;;;;5018873;28;20032;-68
2022/06/30 13:07:09;;;;;;;;;;;;;;;;;;5022919;28;20359;-68
2022/06/30 13:09:36;;;;;;;;;;;;;;;;;;5029929;28;19910;-68
2022/06/30 13:12:02;;;;;;;;;;;;;;;;;;5007932;28;19910;-68
2022/06/30 13:14:29;;;;;;;;;;;;;;;;;;5003083;28;19910;-68
2022/06/30 13:16:55;;;;;;;;;;;;;;;;;;5029583;28;19959;-68
2022/06/30 13:19:21;;;;;;;;;;;;;;;;;;5018394;28;19921;-68
2022/06/30 13:21:49;;;;;;;;;;;;;;;;;;5029110;28;19916;-68
2022/06/30 13:24:15;;;;;;;;;;;;;;;;;;5019691;28;19963;-68
2022/06/30 13:26:41;;;;;;;;;;;;;;;;;;5008531;28;19957;-68
2022/06/30 13:29:07;;;;;;;;;;;;;;;;;;5012014;28;19909;-68
2022/06/30 13:31:33;;;;;;;;;;;;;;;;;;5017563;28;19909;-68
2022/06/30 13:34:00;;;;;;;;;;;;;;;;;;5027032;28;19913;-68
2022/06/30 13:36:29;;;;;;;;;;;;;;;;;;5013941;28;19917;-68
2022/06/30 13:38:55;;;;;;;;;;;;;;;;;;5008632;28;20018;-68
2022/06/30 13:41:21;;;;;;;;;;;;;;;;;;5032246;28;20391;-68
2022/06/30 13:43:47;;;;;;;;;;;;;;;;;;5038537;28;20276;-68
2022/06/30 13:46:14;;;;;;;;;;;;;;;;;;5025743;28;19956;-68
2022/06/30 13:48:40;;;;;;;;;;;;;;;;;;5029928;28;20430;-68
2022/06/30 13:51:06;;;;;;;;;;;;;;;;;;5017616;28;19948;-68
2022/06/30 13:53:32;;;;;;;;;;;;;;;;;;5021449;28;19956;-68
2022/06/30 13:55:58;;;;;;;;;;;;;;;;;;5027751;28;19909;-68
2022/06/30 13:58:27;;;;;;;;;;;;;;;;;;5026077;28;19912;-68
2022/06/30 14:00:53;;;;;;;;;;;;;;;;;;5023953;28;19920;-68
2022/06/30 14:03:19;;;;;;;;;;;;;;;;;;5027391;28;19919;-67
2022/06/30 14:05:45;;;;;;;;;;;;;;;;;;5029290;28;19910;-68
2022/06/30 14:08:11;;;;;;;;;;;;;;;;;;5023599;28;19909;-67
2022/06/30 14:10:37;;;;;;;;;;;;;;;;;;5014934;28;19941;-68
2022/06/30 14:13:03;;;;;;;;;;;;;;;;;;5009882;28;19916;-68
2022/06/30 14:15:29;;;;;;;;;;;;;;;;;;5014618;28;19949;-68
2022/06/30 14:17:55;;;;;;;;;;;;;;;;;;5017721;28;19913;-68
2022/06/30 14:20:21;;;;;;;;;;;;;;;;;;5015713;28;19920;-68
2022/06/30 14:22:47;;;;;;;;;;;;;;;;;;5013767;28;19909;-68
2022/06/30 14:25:13;;;;;;;;;;;;;;;;;;5015443;28;19917;-68
2022/06/30 14:27:39;;;;;;;;;;;;;;;;;;5014076;28;19921;-68
2022/06/30 14:30:06;;;;;;;;;;;;;;;;;;5018851;28;19956;-67
2022/06/30 14:32:32;;;;;;;;;;;;;;;;;;5028842;28;20437;-67
2022/06/30 14:34:58;;;;;;;;;;;;;;;;;;5016129;28;19913;-68
2022/06/30 14:37:24;;;;;;;;;;;;;;;;;;5005261;28;19957;-67
2022/06/30 14:39:51;;;;;;;;;;;;;;;;;;5018982;28;20368;-67
2022/06/30 14:45:02;;;;;;;;;;;;;;;;;;5009875;28;19916;-67
2022/06/30 14:47:28;;;;;;;;;;;;;;;;;;5013569;28;19991;-67
2022/06/30 14:49:54;;;;;;;;;;;;;;;;;;5014029;28;20361;-68
2022/06/30 14:52:20;;;;;;;;;;;;;;;;;;5014378;28;20359;-67
2022/06/30 14:54:46;;;;;;;;;;;;;;;;;;5008525;28;19909;-67
2022/06/30 14:57:12;;;;;;;;;;;;;;;;;;4997788;28;19940;-67
2022/06/30 14:59:38;;;;;;;;;;;;;;;;;;4995389;28;20044;-67
2022/06/30 15:02:04;;;;;;;;;;;;;;;;;;4995334;28;19936;-67
2022/06/30 15:04:30;;;;;;;;;;;;;;;;;;4995040;28;19910;-67
2022/06/30 15:06:56;;;;;;;;;;;;;;;;;;4994978;28;19914;-67
2022/06/30 15:09:23;;;;;;;;;;;;;;;;;;4994993;28;20480;-67
2022/06/30 15:11:49;;;;;;;;;;;;;;;;;;4995246;28;20012;-67
2022/06/30 15:14:15;;;;;;;;;;;;;;;;;;4995191;28;19910;-67
2022/06/30 15:16:41;;;;;;;;;;;;;;;;;;4995137;28;19910;-67
2022/06/30 15:19:07;;;;;;;;;;;;;;;;;;4996937;28;19924;-67
2022/06/30 15:24:18;;;;;;;;;;;;;;;;;;5014246;28;19917;-67
2022/06/30 15:26:44;;;;;;;;;;;;;;;;;;5014603;28;19918;-67
2022/06/30 15:29:10;;;;;;;;;;;;;;;;;;5015018;28;19921;-67
2022/06/30 15:31:36;;;;;;;;;;;;;;;;;;5014496;28;19913;-67
2022/06/30 15:34:02;;;;;;;;;;;;;;;;;;5014992;28;20103;-67
2022/06/30 15:36:28;;;;;;;;;;;;;;;;;;4994311;28;19964;-67
2022/06/30 15:38:54;;;;;;;;;;;;;;;;;;5010308;28;19921;-67
2022/06/30 15:41:20;;;;;;;;;;;;;;;;;;5014137;28;19948;-67
2022/06/30 15:43:46;;;;;;;;;;;;;;;;;;5014651;28;19910;-67
2022/06/30 15:46:13;;;;;;;;;;;;;;;;;;5014648;28;20379;-67
2022/06/30 15:48:39;;;;;;;;;;;;;;;;;;5015229;28;19916;-67
2022/06/30 15:51:05;;;;;;;;;;;;;;;;;;5023034;28;20279;-67
2022/06/30 15:53:31;;;;;;;;;;;;;;;;;;5034423;28;19995;-67
2022/06/30 15:55:57;;;;;;;;;;;;;;;;;;5034017;28;20352;-67
2022/06/30 15:58:23;;;;;;;;;;;;;;;;;;5037585;28;19913;-67
2022/06/30 16:00:48;;;;;;;;;;;;;;;;;;5037911;28;19913;-67
2022/06/30 16:03:14;;;;;;;;;;;;;;;;;;5005743;28;19953;-66
2022/06/30 16:05:40;;;;;;;;;;;;;;;;;;4998383;28;20362;-67
2022/06/30 16:08:06;;;;;;;;;;;;;;;;;;4998164;28;19910;-66
2022/06/30 16:10:32;;;;;;;;;;;;;;;;;;5022379;28;19909;-67
2022/06/30 16:12:58;;;;;;;;;;;;;;;;;;5016790;28;19956;-67
2022/06/30 16:15:24;;;;;;;;;;;;;;;;;;5016970;28;19909;-67
2022/06/30 16:17:51;;;;;;;;;;;;;;;;;;5017710;28;19913;-67
2022/06/30 16:20:17;;;;;;;;;;;;;;;;;;5009847;28;19913;-67
2022/06/30 16:22:43;;;;;;;;;;;;;;;;;;5009088;28;19913;-67
2022/06/30 16:25:09;;;;;;;;;;;;;;;;;;5004444;28;19913;-67
2022/06/30 16:27:35;;;;;;;;;;;;;;;;;;5000154;28;20008;-67
2022/06/30 16:30:01;;;;;;;;;;;;;;;;;;4997994;28;19952;-67
2022/06/30 16:32:27;;;;;;;;;;;;;;;;;;5005198;28;19914;-67
2022/06/30 16:34:53;;;;;;;;;;;;;;;;;;5012012;28;19964;-67
2022/06/30 16:37:19;;;;;;;;;;;;;;;;;;5005131;28;19925;-67
2022/06/30 16:39:45;;;;;;;;;;;;;;;;;;5008093;28;19960;-67
2022/06/30 16:42:11;;;;;;;;;;;;;;;;;;5007834;28;20384;-67
2022/06/30 16:44:37;;;;;;;;;;;;;;;;;;4999925;28;20372;-67
2022/06/30 16:47:03;;;;;;;;;;;;;;;;;;5000103;28;19918;-66
2022/06/30 16:49:29;;;;;;;;;;;;;;;;;;5017233;28;19940;-67
2022/06/30 16:51:55;;;;;;;;;;;;;;;;;;5021964;28;20364;-67
2022/06/30 16:54:22;;;;;;;;;;;;;;;;;;5029095;28;19913;-67
2022/06/30 16:56:48;;;;;;;;;;;;;;;;;;5036235;28;19909;-67
2022/06/30 16:59:14;;;;;;;;;;;;;;;;;;5036368;28;19917;-67